< < Back
Terminal Aerodrome Forecast


Current Version              Previous Versions:   1  2  3  4  5  6  7  8  9  

Terminal Aerodrome Forecast

196
FTUS42 KFFC 301407 AAA
TAFFTY
TAF AMD
KFTY 301407Z 3014/3112 33012G25KT P6SM SCT035
      TEMPO 3014/3018 BKN035
     FM302000 32012KT P6SM FEW035
     FM310000 33004KT P6SM SKC=



Latest METAR

304
SAUS70 KWBC 311600 RRB
MTRFTY
METAR KFTY 311553Z VRB03KT 10SM CLR 06/M07 A3039 RMK AO2 SLP295
T00561067


USA.gov is the U.S. government's official web portal to all federal, state and local government web resources and services.